createdAt,value
2019-05-03T00:00:54.723Z,15.40
2019-05-03T00:01:54.462Z,18.00
2019-05-03T00:02:54.580Z,14.50
2019-05-03T00:03:54.349Z,16.20
2019-05-03T00:04:54.877Z,15.00
2019-05-03T00:05:55.734Z,17.40
2019-05-03T00:06:54.263Z,15.10
2019-05-03T00:07:54.270Z,17.80
2019-05-03T00:08:54.367Z,14.10
2019-05-03T00:09:54.448Z,18.40
2019-05-03T00:10:54.673Z,15.90
2019-05-03T00:11:54.572Z,15.80
2019-05-03T00:12:54.505Z,16.30
2019-05-03T00:13:54.327Z,14.90
2019-05-03T00:14:54.410Z,16.60
2019-05-03T00:15:55.272Z,16.70
2019-05-03T00:16:54.162Z,17.00
2019-05-03T00:17:54.089Z,15.60
2019-05-03T00:18:54.219Z,16.20
2019-05-03T00:19:54.285Z,17.90
2019-05-03T00:20:54.129Z,21.40
2019-05-03T00:21:54.105Z,19.70
2019-05-03T00:22:54.052Z,18.50
2019-05-03T00:23:54.649Z,21.90
2019-05-03T00:25:05.317Z,17.20
2019-05-03T00:25:56.039Z,17.10
2019-05-03T00:26:54.250Z,18.00
2019-05-03T00:27:54.266Z,17.70
2019-05-03T00:28:53.985Z,19.20
2019-05-03T00:29:54.213Z,21.00
2019-05-03T00:30:54.226Z,20.30
2019-05-03T00:31:54.489Z,19.20
2019-05-03T00:32:54.191Z,18.50
2019-05-03T00:33:54.026Z,18.80
2019-05-03T00:34:53.942Z,18.00
2019-05-03T00:35:54.035Z,19.90
2019-05-03T00:36:53.989Z,20.50
2019-05-03T00:37:53.958Z,19.30
2019-05-03T00:38:54.013Z,18.20
2019-05-03T00:39:53.967Z,19.20
2019-05-03T00:40:53.957Z,18.00
2019-05-03T00:41:53.873Z,19.10
2019-05-03T00:42:53.905Z,21.70
2019-05-03T00:43:53.931Z,19.90
2019-05-03T00:44:53.823Z,17.20
2019-05-03T00:45:53.864Z,19.70
2019-05-03T00:46:53.886Z,18.00
2019-05-03T00:47:53.821Z,19.80
2019-05-03T00:48:53.813Z,23.40
2019-05-03T00:49:53.810Z,18.40
2019-05-03T00:50:53.877Z,17.80
2019-05-03T00:51:53.729Z,20.40
2019-05-03T00:52:53.909Z,22.10
2019-05-03T00:53:53.776Z,21.60
2019-05-03T00:54:53.748Z,20.40
2019-05-03T00:55:53.859Z,20.70
2019-05-03T00:56:53.817Z,20.40
2019-05-03T00:57:53.724Z,20.40
2019-05-03T00:58:53.764Z,20.70
2019-05-03T00:59:54.884Z,18.70
2019-05-03T01:00:54.406Z,20.80
2019-05-03T01:01:53.659Z,20.50
2019-05-03T01:02:53.961Z,19.40
2019-05-03T01:03:53.841Z,17.30
2019-05-03T01:04:53.659Z,19.50
2019-05-03T01:05:54.573Z,20.40
2019-05-03T01:06:53.758Z,21.00
2019-05-03T01:07:53.673Z,21.70
2019-05-03T01:08:53.697Z,21.00
2019-05-03T01:09:53.737Z,19.60
2019-05-03T01:10:53.673Z,19.60
2019-05-03T01:11:53.539Z,21.30
2019-05-03T01:12:53.903Z,19.00
2019-05-03T01:13:53.666Z,21.30
2019-05-03T01:14:55.841Z,19.00
2019-05-03T01:15:53.610Z,20.30
2019-05-03T01:16:53.797Z,20.50
2019-05-03T01:17:53.779Z,21.30
2019-05-03T01:18:53.628Z,21.80
2019-05-03T01:19:53.578Z,20.30
2019-05-03T01:20:53.457Z,20.80
2019-05-03T01:21:53.647Z,20.20
2019-05-03T01:22:55.257Z,18.90
2019-05-03T01:23:53.728Z,18.80
2019-05-03T01:24:53.663Z,21.00
2019-05-03T01:25:53.529Z,20.30
2019-05-03T01:26:54.241Z,21.00
2019-05-03T01:27:53.493Z,20.40
2019-05-03T01:28:56.149Z,21.20
2019-05-03T01:29:53.941Z,19.70
2019-05-03T01:30:53.517Z,19.20
2019-05-03T01:31:54.351Z,19.30
2019-05-03T01:32:53.489Z,19.90
2019-05-03T01:33:53.315Z,21.80
2019-05-03T01:34:53.742Z,21.40
2019-05-03T01:35:54.487Z,20.50
2019-05-03T01:36:55.341Z,16.30
2019-05-03T01:37:53.326Z,20.30
2019-05-03T01:38:53.728Z,19.40
2019-05-03T01:39:55.405Z,19.50
2019-05-03T01:40:53.555Z,19.10
2019-05-03T01:41:53.905Z,19.70
2019-05-03T01:42:54.165Z,19.90
2019-05-03T01:43:53.721Z,22.10
2019-05-03T01:44:53.205Z,16.40
2019-05-03T01:45:53.160Z,17.90
2019-05-03T01:46:53.220Z,18.30
2019-05-03T01:47:53.357Z,21.20
2019-05-03T01:48:54.481Z,21.70
2019-05-03T01:49:53.460Z,22.60
2019-05-03T01:50:53.279Z,20.20
2019-05-03T01:51:53.447Z,18.60
2019-05-03T01:52:53.307Z,22.60
2019-05-03T01:53:53.450Z,18.80
2019-05-03T01:54:53.524Z,19.10
2019-05-03T01:55:53.231Z,21.20
2019-05-03T01:56:58.861Z,19.90
2019-05-03T01:57:53.147Z,18.50
2019-05-03T01:58:53.252Z,21.40
2019-05-03T01:59:53.208Z,19.50
2019-05-03T02:00:53.493Z,20.20
2019-05-03T02:01:53.284Z,21.40
2019-05-03T02:02:53.025Z,21.70
2019-05-03T02:03:53.209Z,19.20
2019-05-03T02:04:53.385Z,21.80
2019-05-03T02:05:53.169Z,20.50
2019-05-03T02:06:59.083Z,21.60
2019-05-03T02:07:53.644Z,17.70
2019-05-03T02:08:53.411Z,19.90
2019-05-03T02:09:53.039Z,20.10
2019-05-03T02:10:52.905Z,19.20
2019-05-03T02:11:55.707Z,18.80
2019-05-03T02:12:54.361Z,17.40
2019-05-03T02:13:53.221Z,17.40
2019-05-03T02:14:53.097Z,18.70
2019-05-03T02:15:52.961Z,18.80
2019-05-03T02:16:53.115Z,21.60
2019-05-03T02:17:53.288Z,22.40
2019-05-03T02:18:53.107Z,20.10
2019-05-03T02:19:52.931Z,20.50
2019-05-03T02:20:53.149Z,19.40
2019-05-03T02:21:54.871Z,21.90
2019-05-03T02:22:52.918Z,21.50
2019-05-03T02:23:54.765Z,18.80
2019-05-03T02:24:53.171Z,21.80
2019-05-03T02:25:58.764Z,20.90
2019-05-03T02:27:05.868Z,20.30
2019-05-03T02:27:54.138Z,17.70
2019-05-03T02:28:52.862Z,19.20
2019-05-03T02:29:52.868Z,20.30
2019-05-03T02:30:53.553Z,19.10
2019-05-03T02:31:53.442Z,18.50
2019-05-03T02:32:53.441Z,19.90
2019-05-03T02:33:53.325Z,18.70
2019-05-03T02:35:02.540Z,19.80
2019-05-03T02:35:53.380Z,19.60
2019-05-03T02:36:54.443Z,19.50
2019-05-03T02:37:53.273Z,20.50
2019-05-03T02:38:53.503Z,20.50
2019-05-03T02:39:55.268Z,20.50
2019-05-03T02:40:53.339Z,17.10
2019-05-03T02:41:59.701Z,20.10
2019-05-03T02:42:55.281Z,20.60
2019-05-03T02:43:52.624Z,16.70
2019-05-03T02:44:55.148Z,20.90
2019-05-03T02:45:52.778Z,21.30
2019-05-03T02:46:56.042Z,20.80
2019-05-03T02:47:55.771Z,18.60
2019-05-03T02:48:54.971Z,16.80
2019-05-03T02:49:56.011Z,17.10
2019-05-03T02:50:52.541Z,19.90
2019-05-03T02:51:55.598Z,16.60
2019-05-03T02:52:55.068Z,21.40
2019-05-03T02:53:56.772Z,16.30
2019-05-03T02:54:55.502Z,16.90
2019-05-03T02:55:55.931Z,17.90
2019-05-03T02:56:52.648Z,18.80
2019-05-03T02:57:52.811Z,19.20
2019-05-03T02:58:55.803Z,17.40
2019-05-03T02:59:55.538Z,18.00
2019-05-03T03:00:55.857Z,19.40
2019-05-03T03:01:55.750Z,17.10
2019-05-03T03:02:52.787Z,17.50
2019-05-03T03:03:52.558Z,19.70
2019-05-03T03:04:52.658Z,18.90
2019-05-03T03:05:52.537Z,16.40
2019-05-03T03:06:55.454Z,17.40
2019-05-03T03:07:55.696Z,17.40
2019-05-03T03:08:52.523Z,17.60
2019-05-03T03:09:52.295Z,17.40
2019-05-03T03:10:55.578Z,19.30
2019-05-03T03:11:52.222Z,15.80
2019-05-03T03:12:55.150Z,17.50
2019-05-03T03:13:56.287Z,17.30
2019-05-03T03:14:52.777Z,17.80
2019-05-03T03:15:55.374Z,16.40
2019-05-03T03:16:52.189Z,18.30
2019-05-03T03:17:55.805Z,18.30
2019-05-03T03:18:55.689Z,18.90
2019-05-03T03:19:55.114Z,20.30
2019-05-03T03:20:55.358Z,16.80
2019-05-03T03:21:52.313Z,14.90
2019-05-03T03:22:58.179Z,16.10
2019-05-03T03:23:52.615Z,19.00
2019-05-03T03:24:52.496Z,17.10
2019-05-03T03:25:52.228Z,16.90
2019-05-03T03:26:52.363Z,20.50
2019-05-03T03:27:52.130Z,18.30
2019-05-03T03:28:52.233Z,18.30
2019-05-03T03:29:55.299Z,16.20
2019-05-03T03:30:57.181Z,18.30
2019-05-03T03:31:57.345Z,19.40
2019-05-03T03:32:57.693Z,18.00
2019-05-03T03:33:52.024Z,16.60
2019-05-03T03:35:00.614Z,18.80
2019-05-03T03:35:57.961Z,19.20
2019-05-03T03:37:00.694Z,19.90
2019-05-03T03:37:52.126Z,15.50
2019-05-03T03:38:55.285Z,18.50
2019-05-03T03:39:52.151Z,21.20
2019-05-03T03:40:55.521Z,17.40
2019-05-03T03:41:55.647Z,17.40
2019-05-03T03:42:55.674Z,18.50
2019-05-03T03:43:52.289Z,18.20
2019-05-03T03:44:52.477Z,17.70
2019-05-03T03:45:52.128Z,19.70
2019-05-03T03:46:52.279Z,19.50
2019-05-03T03:47:56.364Z,18.70
2019-05-03T03:48:55.786Z,18.80
2019-05-03T03:49:55.230Z,17.20
2019-05-03T03:50:51.892Z,18.40
2019-05-03T03:51:51.973Z,18.30
2019-05-03T03:52:56.802Z,18.10
2019-05-03T03:53:52.018Z,17.70
2019-05-03T03:54:51.995Z,19.10
2019-05-03T03:55:52.149Z,16.80
2019-05-03T03:56:59.351Z,18.90
2019-05-03T03:57:55.717Z,15.30
2019-05-03T03:58:51.844Z,15.20
2019-05-03T03:59:52.101Z,15.90
2019-05-03T04:00:52.048Z,15.90
2019-05-03T04:01:52.205Z,16.00
2019-05-03T04:02:55.269Z,15.80
2019-05-03T04:03:53.019Z,13.90
2019-05-03T04:04:56.656Z,17.70
2019-05-03T04:05:51.877Z,14.90
2019-05-03T04:06:51.976Z,18.70
2019-05-03T04:07:56.045Z,15.00
2019-05-03T04:08:55.988Z,15.00
2019-05-03T04:09:56.091Z,16.10
2019-05-03T04:10:55.710Z,17.50
2019-05-03T04:11:51.970Z,16.30
2019-05-03T04:12:51.831Z,18.30
2019-05-03T04:13:51.598Z,16.50
2019-05-03T04:14:52.327Z,15.00
2019-05-03T04:15:51.819Z,15.10
2019-05-03T04:16:51.484Z,16.30
2019-05-03T04:17:51.590Z,15.60
2019-05-03T04:18:51.616Z,14.30
2019-05-03T04:19:51.580Z,15.30
2019-05-03T04:20:51.628Z,14.50
2019-05-03T04:21:51.483Z,13.50
2019-05-03T04:22:51.450Z,12.30
2019-05-03T04:23:51.417Z,11.70
2019-05-03T04:24:55.093Z,13.70
2019-05-03T04:25:51.881Z,13.50
2019-05-03T04:26:51.454Z,12.60
2019-05-03T04:27:51.706Z,11.50
2019-05-03T04:28:51.802Z,13.90
2019-05-03T04:29:51.647Z,12.40
2019-05-03T04:30:51.628Z,13.90
2019-05-03T04:31:51.592Z,13.10
2019-05-03T04:32:52.005Z,13.40
2019-05-03T04:33:51.564Z,13.30
2019-05-03T04:34:51.529Z,14.10
2019-05-03T04:35:51.618Z,15.00
2019-05-03T04:36:51.583Z,12.20
2019-05-03T04:37:51.462Z,12.70
2019-05-03T04:38:51.619Z,15.10
2019-05-03T04:39:52.215Z,14.10
2019-05-03T04:40:51.390Z,13.70
2019-05-03T04:41:51.817Z,12.70
2019-05-03T04:42:51.567Z,13.90
2019-05-03T04:43:51.472Z,14.30
2019-05-03T04:44:51.474Z,17.90
2019-05-03T04:45:51.594Z,13.20
2019-05-03T04:46:54.849Z,13.80
2019-05-03T04:47:51.790Z,15.40
2019-05-03T04:49:00.999Z,13.30
2019-05-03T04:49:51.630Z,13.20
2019-05-03T04:50:52.151Z,14.20
2019-05-03T04:51:51.122Z,13.30
2019-05-03T04:52:51.288Z,11.20
2019-05-03T04:53:55.612Z,14.60
2019-05-03T04:54:51.122Z,12.10
2019-05-03T04:55:51.205Z,12.70
2019-05-03T04:56:51.444Z,12.30
2019-05-03T04:57:51.143Z,11.70
2019-05-03T04:58:51.391Z,12.40
2019-05-03T04:59:51.308Z,12.80
2019-05-03T05:00:51.438Z,12.80
2019-05-03T05:01:51.190Z,11.80
2019-05-03T05:02:51.218Z,12.90
2019-05-03T05:03:52.870Z,12.90
2019-05-03T05:04:51.030Z,12.00
2019-05-03T05:05:51.112Z,11.70
2019-05-03T05:06:51.301Z,13.10
2019-05-03T05:07:51.221Z,12.20
2019-05-03T05:08:51.019Z,9.40
2019-05-03T05:09:51.995Z,11.80
2019-05-03T05:10:51.169Z,9.20
2019-05-03T05:11:51.516Z,11.20
2019-05-03T05:12:51.009Z,12.00
2019-05-03T05:13:51.828Z,13.70
2019-05-03T05:14:50.980Z,13.20
2019-05-03T05:15:51.053Z,9.10
2019-05-03T05:16:55.704Z,11.80
2019-05-03T05:17:51.334Z,9.80
2019-05-03T05:18:56.029Z,10.30
2019-05-03T05:19:50.900Z,12.60
2019-05-03T05:20:51.769Z,12.20
2019-05-03T05:21:50.843Z,11.60
2019-05-03T05:22:50.789Z,12.50
2019-05-03T05:23:50.921Z,10.90
2019-05-03T05:24:50.761Z,13.20
2019-05-03T05:25:50.941Z,12.00
2019-05-03T05:26:51.437Z,11.00
2019-05-03T05:27:54.643Z,12.20
2019-05-03T05:28:51.080Z,10.40
2019-05-03T05:29:51.308Z,12.40
2019-05-03T05:54:05.123Z,10.80
2019-05-03T05:54:55.308Z,9.90
2019-05-03T05:55:55.064Z,9.60
2019-05-03T05:56:54.708Z,12.50
2019-05-03T05:58:03.054Z,10.70
2019-05-03T05:58:55.403Z,10.60
2019-05-03T05:59:54.492Z,13.10
2019-05-03T06:00:55.219Z,11.80
2019-05-03T06:01:55.549Z,13.20
2019-05-03T06:02:55.122Z,12.20
2019-05-03T06:03:55.068Z,9.20
2019-05-03T06:04:54.439Z,13.20
2019-05-03T06:05:54.923Z,12.90
2019-05-03T06:06:55.362Z,9.80
2019-05-03T06:07:54.576Z,11.00
2019-05-03T06:08:54.764Z,9.00
2019-05-03T06:09:54.976Z,11.10
2019-05-03T06:10:55.354Z,9.40
2019-05-03T06:11:55.379Z,10.10
2019-05-03T06:12:54.549Z,12.10
2019-05-03T06:13:54.604Z,11.30
2019-05-03T06:14:54.435Z,10.20
2019-05-03T06:15:54.827Z,9.60
2019-05-03T06:16:55.275Z,11.80
2019-05-03T06:17:55.358Z,14.70
2019-05-03T06:18:54.475Z,10.60
2019-05-03T06:19:55.020Z,10.30
2019-05-03T06:20:54.378Z,7.70
2019-05-03T06:21:54.863Z,10.90
2019-05-03T06:22:54.944Z,9.20
2019-05-03T06:23:53.506Z,9.30
2019-05-03T06:24:54.388Z,9.30
2019-05-03T06:25:54.547Z,9.50
2019-05-03T06:26:54.654Z,7.10
2019-05-03T06:27:54.924Z,7.20
2019-05-03T06:28:54.520Z,7.90
2019-05-03T06:29:54.594Z,8.50
2019-05-03T06:30:54.499Z,9.70
2019-05-03T06:31:55.068Z,9.30
2019-05-03T06:32:55.101Z,9.40
2019-05-03T06:33:55.229Z,9.80
2019-05-03T06:34:54.596Z,8.10
2019-05-03T06:35:54.704Z,7.70
2019-05-03T06:36:55.235Z,8.90
2019-05-03T06:37:54.585Z,8.10
2019-05-03T06:38:54.771Z,8.90
2019-05-03T06:39:54.418Z,7.50
2019-05-03T06:40:54.410Z,8.20
2019-05-03T06:41:55.049Z,10.40
2019-05-03T06:42:57.255Z,9.00
2019-05-03T06:43:55.206Z,9.30
2019-05-03T06:44:54.648Z,8.10
2019-05-03T06:45:54.813Z,8.30
2019-05-03T06:46:55.109Z,8.60
2019-05-03T06:47:54.976Z,7.00
2019-05-03T06:48:54.302Z,6.10
2019-05-03T06:49:55.125Z,6.70
2019-05-03T06:50:55.667Z,6.40
2019-05-03T06:51:54.594Z,7.90
2019-05-03T06:52:54.806Z,7.20
2019-05-03T06:53:54.779Z,7.00
2019-05-03T06:54:55.229Z,7.50
2019-05-03T06:55:55.294Z,8.10
2019-05-03T06:56:53.151Z,6.90
2019-05-03T06:57:54.608Z,8.50
2019-05-03T06:58:54.735Z,7.60
2019-05-03T06:59:54.934Z,7.60
2019-05-03T07:00:55.234Z,7.00
2019-05-03T07:01:55.203Z,7.80
2019-05-03T07:02:54.623Z,7.50
2019-05-03T07:03:54.787Z,8.30
2019-05-03T07:04:53.041Z,8.20
2019-05-03T07:05:54.864Z,7.20
2019-05-03T07:06:55.059Z,7.50
2019-05-03T07:07:54.741Z,6.70
2019-05-03T07:08:54.823Z,6.30
2019-05-03T07:09:54.668Z,8.30
2019-05-03T07:10:54.943Z,9.60
2019-05-03T07:11:52.994Z,7.40
2019-05-03T07:12:54.688Z,6.90
2019-05-03T07:13:54.890Z,8.70
2019-05-03T07:14:54.576Z,8.40
2019-05-03T07:15:52.934Z,8.40
2019-05-03T07:16:52.990Z,6.10
2019-05-03T07:17:52.893Z,8.10
2019-05-03T07:18:56.439Z,7.70
2019-05-03T07:19:54.644Z,8.70
2019-05-03T07:20:54.960Z,7.70
2019-05-03T07:21:54.634Z,7.30
2019-05-03T07:22:52.839Z,6.80
2019-05-03T07:23:55.010Z,8.30
2019-05-03T07:24:54.515Z,6.50
2019-05-03T07:25:52.825Z,8.40
2019-05-03T07:26:59.028Z,7.30
2019-05-03T07:27:52.876Z,7.00
2019-05-03T07:28:54.547Z,7.80
2019-05-03T07:29:52.763Z,6.40
2019-05-03T07:30:54.380Z,6.30
2019-05-03T07:31:54.767Z,9.00
2019-05-03T07:32:54.550Z,5.90
2019-05-03T07:33:54.911Z,5.40
2019-05-03T07:34:52.707Z,9.00
2019-05-03T07:35:54.679Z,6.90
2019-05-03T07:36:52.715Z,7.90
2019-05-03T07:37:52.683Z,7.90
2019-05-03T07:38:52.703Z,7.60
2019-05-03T07:39:52.699Z,8.20
2019-05-03T07:40:54.815Z,6.20
2019-05-03T07:41:52.631Z,8.30
2019-05-03T07:42:52.627Z,6.80
2019-05-03T07:43:52.637Z,6.60
2019-05-03T07:44:52.598Z,5.90
2019-05-03T07:45:52.607Z,6.10
2019-05-03T07:46:52.578Z,7.20
2019-05-03T07:47:52.567Z,6.20
2019-05-03T07:48:54.660Z,6.00
2019-05-03T07:49:54.577Z,5.70
2019-05-03T07:50:54.539Z,6.30
2019-05-03T07:51:52.563Z,5.20
2019-05-03T07:52:52.507Z,8.00
2019-05-03T07:53:52.526Z,8.40
2019-05-03T07:54:52.491Z,7.00
2019-05-03T07:55:54.659Z,6.50
2019-05-03T07:56:52.466Z,7.20
2019-05-03T07:57:52.478Z,6.50
2019-05-03T07:58:59.962Z,6.80
2019-05-03T07:59:55.526Z,6.00
2019-05-03T08:01:03.552Z,5.10
2019-05-03T08:01:54.636Z,6.60
2019-05-03T08:02:52.529Z,6.10
2019-05-03T08:03:52.428Z,7.70
2019-05-03T08:04:52.447Z,7.00
2019-05-03T08:05:52.409Z,5.90
2019-05-03T08:06:54.797Z,5.50
2019-05-03T08:07:52.351Z,4.20
2019-05-03T08:08:54.417Z,6.30
2019-05-03T08:09:52.396Z,6.30
2019-05-03T08:10:52.312Z,5.70
2019-05-03T08:11:52.315Z,4.10
2019-05-03T08:12:54.344Z,5.70
2019-05-03T08:13:52.325Z,5.10
2019-05-03T08:14:52.267Z,4.90
2019-05-03T08:15:52.273Z,4.50
2019-05-03T08:16:54.611Z,5.20
2019-05-03T08:17:52.259Z,5.50
2019-05-03T08:18:53.082Z,4.50
2019-05-03T08:19:52.266Z,4.90
2019-05-03T08:20:52.203Z,5.00
2019-05-03T08:21:52.247Z,5.10
2019-05-03T08:22:52.205Z,5.40
2019-05-03T08:23:52.361Z,5.60
2019-05-03T08:24:52.173Z,5.70
2019-05-03T08:25:52.295Z,4.10
2019-05-03T08:26:52.151Z,3.70
2019-05-03T08:27:52.127Z,3.40
2019-05-03T08:28:54.360Z,4.00
2019-05-03T08:29:52.262Z,5.00
2019-05-03T08:30:52.094Z,6.20
2019-05-03T08:31:52.082Z,4.70
2019-05-03T08:32:52.155Z,5.80
2019-05-03T08:33:52.119Z,5.60
2019-05-03T08:34:52.053Z,5.00
2019-05-03T08:35:52.085Z,4.60
2019-05-03T08:36:52.048Z,5.20
2019-05-03T08:37:52.020Z,7.80
2019-05-03T08:38:52.702Z,5.90
2019-05-03T08:39:52.039Z,5.30
2019-05-03T08:40:51.992Z,6.50
2019-05-03T08:41:51.983Z,5.50
2019-05-03T08:42:51.995Z,4.90
2019-05-03T08:43:51.959Z,6.00
2019-05-03T08:44:51.975Z,5.20
2019-05-03T08:45:52.069Z,5.60
2019-05-03T08:46:51.952Z,5.70
2019-05-03T08:47:51.913Z,5.50
2019-05-03T08:48:51.908Z,6.50
2019-05-03T08:49:51.923Z,5.30
2019-05-03T08:50:51.928Z,5.10
2019-05-03T08:51:51.934Z,6.10
2019-05-03T08:52:51.861Z,6.10
2019-05-03T08:53:51.848Z,5.10
2019-05-03T08:54:51.877Z,6.30
2019-05-03T08:55:51.823Z,5.70
2019-05-03T08:56:51.813Z,5.10
2019-05-03T08:57:51.850Z,6.50
2019-05-03T08:58:51.799Z,5.70
2019-05-03T08:59:51.811Z,5.70
2019-05-03T09:02:05.199Z,3.40
2019-05-03T09:03:01.082Z,5.10
2019-05-03T09:04:00.124Z,6.70
2019-05-03T09:05:00.135Z,6.70
2019-05-03T09:06:00.094Z,6.90
2019-05-03T09:07:00.168Z,5.60
2019-05-03T09:08:00.057Z,5.90
2019-05-03T09:09:00.146Z,6.40
2019-05-03T09:10:00.094Z,5.90
2019-05-03T09:11:00.002Z,4.90
2019-05-03T09:12:00.033Z,4.80
2019-05-03T09:13:00.098Z,5.20
2019-05-03T09:14:00.092Z,4.40
2019-05-03T09:15:00.182Z,6.40
2019-05-03T09:16:00.012Z,5.50
2019-05-03T09:16:59.935Z,5.60
2019-05-03T09:17:59.937Z,6.20
2019-05-03T09:18:59.991Z,4.30
2019-05-03T09:19:59.932Z,6.30
2019-05-03T09:20:59.920Z,4.90
2019-05-03T09:21:59.921Z,5.90
2019-05-03T09:22:59.867Z,4.50
2019-05-03T09:23:59.855Z,5.70
2019-05-03T09:24:59.948Z,5.90
2019-05-03T09:25:59.835Z,4.00
2019-05-03T09:26:59.876Z,6.90
2019-05-03T09:27:59.923Z,5.10
2019-05-03T09:28:59.793Z,4.80
2019-05-03T09:29:59.787Z,5.70
2019-05-03T09:30:59.820Z,4.70
2019-05-03T09:31:59.763Z,6.10
2019-05-03T09:32:59.762Z,3.60
2019-05-03T09:33:59.745Z,3.70
2019-05-03T09:34:59.762Z,3.90
2019-05-03T09:35:59.748Z,7.80
2019-05-03T09:36:59.713Z,3.60
2019-05-03T09:37:59.711Z,11.50
2019-05-03T09:38:59.689Z,8.50
2019-05-03T09:39:59.685Z,6.40
2019-05-03T09:40:59.725Z,7.60
2019-05-03T09:41:59.669Z,4.70
2019-05-03T09:42:59.642Z,5.50
2019-05-03T09:43:59.708Z,6.10
2019-05-03T09:44:59.627Z,5.10
2019-05-03T09:45:59.641Z,3.70
2019-05-03T09:46:59.634Z,6.00
2019-05-03T09:47:59.590Z,5.30
2019-05-03T09:49:12.519Z,5.60
2019-05-03T09:50:02.225Z,6.70
2019-05-03T09:50:59.588Z,6.70
2019-05-03T09:51:59.657Z,6.10
2019-05-03T09:52:59.567Z,5.50
2019-05-03T09:53:59.550Z,5.00
2019-05-03T09:54:59.517Z,6.30
2019-05-03T09:55:59.529Z,4.00
2019-05-03T09:56:59.502Z,5.10
2019-05-03T09:57:59.482Z,5.40
2019-05-03T09:58:59.473Z,5.90
2019-05-03T10:00:00.076Z,6.60
2019-05-03T10:00:59.487Z,5.40
2019-05-03T10:01:59.433Z,5.40
2019-05-03T10:02:59.438Z,6.30
2019-05-03T10:03:59.434Z,4.80
2019-05-03T10:04:59.460Z,5.90
2019-05-03T10:05:59.659Z,5.40
2019-05-03T10:06:59.431Z,5.00
2019-05-03T10:07:59.518Z,4.30
2019-05-03T10:08:59.462Z,6.30
2019-05-03T10:09:59.387Z,6.70
2019-05-03T10:10:59.646Z,4.40
2019-05-03T10:11:59.357Z,6.50
2019-05-03T10:12:59.440Z,5.50
2019-05-03T10:13:59.319Z,5.20
2019-05-03T10:14:59.313Z,5.40
2019-05-03T10:15:59.331Z,3.90
2019-05-03T10:16:59.303Z,4.40
2019-05-03T10:17:59.263Z,4.50
2019-05-03T10:18:59.305Z,3.60
2019-05-03T10:19:59.321Z,3.40
2019-05-03T10:20:59.237Z,4.30
2019-05-03T10:21:59.286Z,5.40
2019-05-03T10:22:59.237Z,4.70
2019-05-03T10:23:59.361Z,4.90
2019-05-03T10:24:59.199Z,6.10
2019-05-03T10:25:59.175Z,8.90
2019-05-03T10:26:59.333Z,22.80
2019-05-03T10:27:59.172Z,13.80
2019-05-03T10:28:59.148Z,17.00
2019-05-03T10:30:12.154Z,13.50
2019-05-03T10:31:00.174Z,8.40
2019-05-03T10:31:59.157Z,5.60
2019-05-03T10:32:59.174Z,5.00
2019-05-03T10:33:59.091Z,5.90
2019-05-03T10:34:59.091Z,6.00
2019-05-03T10:35:59.171Z,8.50
2019-05-03T10:37:01.888Z,4.80
2019-05-03T10:37:59.326Z,6.00
2019-05-03T10:38:59.049Z,5.60
2019-05-03T10:39:59.029Z,5.20
2019-05-03T10:40:59.020Z,5.70
2019-05-03T10:41:59.034Z,4.20
2019-05-03T10:42:59.024Z,4.80
2019-05-03T10:43:59.002Z,5.50
2019-05-03T10:44:58.983Z,6.00
2019-05-03T10:45:58.969Z,4.50
2019-05-03T10:46:59.063Z,4.50
2019-05-03T10:47:58.969Z,3.60
2019-05-03T10:48:58.941Z,3.90
2019-05-03T10:49:58.952Z,4.80
2019-05-03T10:50:58.919Z,5.20
2019-05-03T10:51:58.941Z,3.70
2019-05-03T10:52:58.885Z,6.10
2019-05-03T10:53:58.905Z,5.00
2019-05-03T10:54:58.878Z,3.50
2019-05-03T10:55:58.870Z,5.20
2019-05-03T10:56:58.904Z,5.60
2019-05-03T10:57:58.875Z,4.20
2019-05-03T10:58:58.869Z,4.30
2019-05-03T10:59:59.127Z,4.40
2019-05-03T11:00:58.915Z,4.80
2019-05-03T11:02:01.875Z,3.90
2019-05-03T11:02:58.789Z,3.60
2019-05-03T11:03:58.780Z,4.70
2019-05-03T11:04:58.750Z,4.50
2019-05-03T11:05:58.772Z,5.00
2019-05-03T11:06:58.761Z,3.70
2019-05-03T11:07:58.744Z,4.90
2019-05-03T11:08:58.708Z,6.30
2019-05-03T11:09:58.725Z,5.20
2019-05-03T11:10:58.689Z,3.00
2019-05-03T11:11:58.728Z,4.30
2019-05-03T11:12:58.658Z,3.90
2019-05-03T11:13:58.646Z,6.30
2019-05-03T11:14:58.670Z,4.90
2019-05-03T11:15:58.629Z,7.00
2019-05-03T11:17:00.551Z,4.90
2019-05-03T11:17:58.603Z,3.50
2019-05-03T11:18:58.593Z,8.10
2019-05-03T11:19:58.594Z,4.40
2019-05-03T11:20:58.593Z,3.10
2019-05-03T11:21:58.590Z,5.10
2019-05-03T11:22:58.557Z,4.90
2019-05-03T11:23:58.543Z,4.00
2019-05-03T11:24:58.525Z,5.00
2019-05-03T11:25:58.517Z,4.10
2019-05-03T11:27:00.133Z,3.90
2019-05-03T11:27:58.503Z,4.70
2019-05-03T11:29:00.493Z,3.80
2019-05-03T11:29:59.285Z,3.00
2019-05-03T11:31:02.263Z,3.60
2019-05-03T11:31:58.485Z,3.70
2019-05-03T11:32:58.463Z,4.20
2019-05-03T11:33:58.434Z,4.70
2019-05-03T11:34:58.421Z,4.20
2019-05-03T11:35:58.418Z,4.10
2019-05-03T11:36:58.425Z,4.80
2019-05-03T11:37:58.389Z,4.40
2019-05-03T11:38:58.419Z,4.00
2019-05-03T11:39:58.368Z,4.40
2019-05-03T11:40:58.364Z,3.80
2019-05-03T11:41:58.376Z,3.30
2019-05-03T11:42:58.335Z,3.40
2019-05-03T11:43:58.333Z,4.50
2019-05-03T11:44:58.315Z,4.50
2019-05-03T11:45:58.315Z,3.80
2019-05-03T11:46:58.321Z,4.20
2019-05-03T11:47:58.278Z,4.20
2019-05-03T11:48:58.271Z,4.30
2019-05-03T11:49:58.269Z,3.70
2019-05-03T11:50:58.251Z,4.20
2019-05-03T11:51:58.340Z,5.30
2019-05-03T11:52:58.232Z,4.30
2019-05-03T11:53:58.220Z,4.20
2019-05-03T11:54:58.206Z,6.90
2019-05-03T11:55:58.197Z,3.90
2019-05-03T11:56:58.245Z,6.30
2019-05-03T11:57:58.175Z,3.90
2019-05-03T11:58:58.195Z,4.80
2019-05-03T11:59:58.159Z,4.30
2019-05-03T12:01:11.637Z,5.70
2019-05-03T12:01:59.159Z,4.10
2019-05-03T12:02:58.122Z,4.90
2019-05-03T12:03:58.113Z,4.40
2019-05-03T12:04:58.163Z,5.80
2019-05-03T12:05:58.095Z,4.40
2019-05-03T12:06:58.116Z,6.30
2019-05-03T12:07:58.062Z,4.70
2019-05-03T12:08:58.055Z,3.60
2019-05-03T12:09:58.060Z,3.70
2019-05-03T12:11:01.278Z,4.30
2019-05-03T12:11:58.091Z,5.50
2019-05-03T12:12:58.021Z,5.30
2019-05-03T12:14:04.387Z,3.80
2019-05-03T12:14:58.981Z,3.80
2019-05-03T12:15:58.094Z,4.80
2019-05-03T12:17:17.215Z,3.80
2019-05-03T12:17:59.643Z,4.90
2019-05-03T12:18:57.954Z,4.20
2019-05-03T12:19:58.997Z,5.30
2019-05-03T12:20:59.659Z,3.90
2019-05-03T12:21:58.642Z,5.10
2019-05-03T12:22:58.545Z,4.80
2019-05-03T12:23:58.665Z,4.60
2019-05-03T12:24:58.524Z,3.30
2019-05-03T12:25:58.411Z,5.30
2019-05-03T12:26:57.861Z,4.70
2019-05-03T12:27:57.893Z,4.70
2019-05-03T12:28:57.830Z,5.50
2019-05-03T12:29:57.851Z,5.30
2019-05-03T12:30:57.817Z,4.10
2019-05-03T12:31:57.810Z,5.50
2019-05-03T12:32:57.822Z,5.50
2019-05-03T12:33:57.790Z,5.50
2019-05-03T12:34:57.767Z,4.70
2019-05-03T12:35:57.803Z,5.00
2019-05-03T12:36:57.794Z,5.20
2019-05-03T12:37:57.767Z,4.60
2019-05-03T12:38:57.734Z,4.60
2019-05-03T12:39:57.718Z,4.30
2019-05-03T12:40:57.707Z,5.90
2019-05-03T12:41:57.699Z,6.60
2019-05-03T12:42:57.733Z,4.80
2019-05-03T12:43:57.673Z,4.80
2019-05-03T12:44:57.664Z,4.20
2019-05-03T12:45:57.654Z,6.40
2019-05-03T12:46:57.668Z,5.00
2019-05-03T12:47:57.653Z,5.00
2019-05-03T12:48:57.638Z,5.00
2019-05-03T12:49:57.615Z,5.90
2019-05-03T12:50:58.039Z,4.70
2019-05-03T12:51:57.587Z,4.60
2019-05-03T12:52:57.595Z,3.30
2019-05-03T12:53:57.562Z,4.30
2019-05-03T12:54:57.553Z,5.40
2019-05-03T12:55:57.579Z,5.70
2019-05-03T12:56:57.528Z,4.00
2019-05-03T12:57:57.570Z,5.70
2019-05-03T12:58:57.507Z,3.80
2019-05-03T12:59:57.495Z,4.70
2019-05-03T13:00:57.496Z,4.60
2019-05-03T13:01:57.479Z,4.90
2019-05-03T13:02:57.506Z,5.40
2019-05-03T13:03:57.451Z,5.40
2019-05-03T13:04:57.455Z,5.20
2019-05-03T13:05:57.437Z,3.50
2019-05-03T13:06:57.425Z,4.40
2019-05-03T13:07:57.435Z,5.80
2019-05-03T13:08:57.445Z,5.30
2019-05-03T13:09:57.405Z,4.90
2019-05-03T13:10:57.381Z,4.90
2019-05-03T13:11:59.038Z,4.60
2019-05-03T13:12:57.427Z,6.30
2019-05-03T13:13:57.342Z,4.50
2019-05-03T13:14:57.381Z,4.60
2019-05-03T13:15:57.326Z,5.00
2019-05-03T13:16:57.332Z,6.10
2019-05-03T13:17:57.326Z,5.30
2019-05-03T13:18:57.295Z,4.80
2019-05-03T13:19:57.281Z,4.80
2019-05-03T13:20:57.303Z,5.20
2019-05-03T13:21:57.251Z,5.20
2019-05-03T13:22:57.269Z,4.60
2019-05-03T13:23:57.231Z,4.00
2019-05-03T13:24:57.221Z,5.00
2019-05-03T13:25:57.236Z,5.90
2019-05-03T13:26:57.249Z,4.60
2019-05-03T13:27:57.234Z,6.40
2019-05-03T13:28:59.659Z,7.00
2019-05-03T13:29:57.167Z,5.50
2019-05-03T13:30:57.153Z,5.50